Time;durP1;ratioP1;P1;durP2;ratioP2;P2;SDS_P1;SDS_P2;PMS_P1;PMS_P2;Temp;Humidity;BMP_temperature;BMP_pressure;BME280_temperature;BME280_humidity;BME280_pressure;Samples;Min_cycle;Max_cycle;Signal;HPM_P1;HPM_P2
2021/01/31 00:02:02;;;;;;;9.83;8.83;;;;;;;3.46;85.32;98385.47;5036861;28;20132;-34
2021/01/31 00:04:36;;;;;;;9.77;8.70;;;;;;;3.47;85.69;98386.34;5054646;28;20044;-34
2021/01/31 00:07:08;;;;;;;12.95;9.30;;;;;;;3.46;85.26;98388.03;5054659;28;20142;-34
2021/01/31 00:09:41;;;;;;;9.98;8.98;;;;;;;3.46;85.45;98384.63;5054824;28;20037;-34
2021/01/31 00:12:16;;;;;;;10.70;9.68;;;;;;;3.49;85.16;98390.66;5036706;28;20124;-34
2021/01/31 00:14:49;;;;;;;;;;;;;;;3.46;85.37;98398.28;5055029;28;20032;-34
2021/01/31 00:17:20;;;;;;;12.02;9.27;;;;;;;3.48;85.60;98390.66;5036661;28;19925;-34
2021/01/31 00:19:52;;;;;;;10.18;9.18;;;;;;;3.46;85.52;98403.41;5037204;28;20066;-34
2021/01/31 00:22:26;;;;;;;8.73;7.82;;;;;;;3.45;85.54;98408.53;5035169;28;20057;-34
2021/01/31 00:24:57;;;;;;;11.75;9.38;;;;;;;3.44;85.65;98410.19;5052883;28;20037;-34
2021/01/31 00:27:31;;;;;;;11.05;9.13;;;;;;;3.45;85.82;98411.06;5054302;28;20369;-34
2021/01/31 00:30:07;;;;;;;10.23;9.10;;;;;;;3.46;85.29;98421.34;5035961;28;20095;-34
2021/01/31 00:32:39;;;;;;;11.23;9.02;;;;;;;3.44;85.53;98414.47;5020541;28;20118;-34
2021/01/31 00:35:10;;;;;;;10.32;8.82;;;;;;;3.40;85.18;98416.13;5054599;28;20106;-34
2021/01/31 00:37:47;;;;;;;11.57;9.75;;;;;;;3.40;85.34;98422.94;5036384;28;20107;-34
2021/01/31 00:40:16;;;;;;;10.57;8.85;;;;;;;3.42;85.59;98421.25;5054072;28;20040;-35
2021/01/31 00:42:52;;;;;;;10.40;9.30;;;;;;;3.39;85.23;98426.31;5054019;28;20041;-34
2021/01/31 00:45:28;;;;;;;9.90;8.75;;;;;;;3.38;85.61;98422.03;5036540;28;20480;-34
2021/01/31 00:47:57;;;;;;;9.93;8.83;;;;;;;3.40;84.95;98421.25;5035761;28;20079;-34
2021/01/31 00:50:31;;;;;;;11.05;9.13;;;;;;;3.40;85.14;98413.56;5035663;28;20056;-34
2021/01/31 00:53:00;;;;;;;11.77;9.52;;;;;;;3.42;85.63;98411.91;5053844;28;20086;-34
2021/01/31 00:55:34;;;;;;;11.32;9.20;;;;;;;3.41;84.79;98415.28;5053567;28;20492;-34
2021/01/31 00:58:02;;;;;;;10.15;9.07;;;;;;;3.41;85.42;98425.53;5052195;28;20049;-34
2021/01/31 01:00:34;;;;;;;9.35;8.35;;;;;;;3.38;85.09;98433.16;5053328;28;20503;-34
2021/01/31 01:03:08;;;;;;;10.27;8.65;;;;;;;3.33;85.45;98439.88;5053726;28;20045;-34
2021/01/31 01:05:42;;;;;;;11.77;8.73;;;;;;;3.34;85.50;98439.03;5035483;28;20039;-34
2021/01/31 01:08:10;;;;;;;10.02;8.65;;;;;;;3.35;85.33;98433.94;5035730;28;20039;-34
2021/01/31 01:10:46;;;;;;;10.52;8.23;;;;;;;3.35;85.70;98435.66;5036127;28;20037;-34
2021/01/31 01:13:17;;;;;;;10.02;8.88;;;;;;;3.36;85.25;98432.25;5053489;28;20039;-34
2021/01/31 01:15:50;;;;;;;10.43;9.10;;;;;;;3.36;85.19;98434.81;5053038;28;20033;-34
2021/01/31 01:18:22;;;;;;;9.82;8.63;;;;;;;3.34;84.76;98431.34;5052437;28;20510;-34
2021/01/31 01:20:53;;;;;;;10.00;8.95;;;;;;;3.37;85.27;98433.09;5051789;28;20025;-35
2021/01/31 01:23:27;;;;;;;11.00;9.50;;;;;;;3.36;85.19;98434.81;5019296;28;20068;-45
2021/01/31 01:25:58;;;;;;;11.38;9.65;;;;;;;3.36;84.97;98429.69;5053957;28;20079;-40
2021/01/31 01:28:26;;;;;;;12.20;9.30;;;;;;;3.34;85.05;98442.50;5002540;28;20041;-34
2021/01/31 01:31:00;;;;;;;11.07;9.80;;;;;;;3.33;85.62;98450.13;5019124;28;20098;-34
2021/01/31 01:33:31;;;;;;;9.95;8.13;;;;;;;3.30;85.43;98440.69;5053296;28;20082;-34
2021/01/31 01:36:10;;;;;;;9.45;8.45;;;;;;;3.32;85.35;98444.16;5051945;28;20072;-34
2021/01/31 01:38:38;;;;;;;9.88;8.88;;;;;;;3.33;85.09;98437.31;5052903;28;20083;-34
2021/01/31 01:41:17;;;;;;;10.00;9.02;;;;;;;3.32;84.97;98441.59;5052597;28;20037;-34
2021/01/31 01:43:49;;;;;;;9.95;8.77;;;;;;;3.32;84.90;98450.94;5019197;28;20037;-34
2021/01/31 01:46:27;;;;;;;9.23;8.27;;;;;;;3.32;85.27;98450.94;5035224;28;20036;-34
2021/01/31 01:48:59;;;;;;;10.88;9.10;;;;;;;3.31;85.75;98439.84;5035528;28;20041;-34
2021/01/31 01:51:37;;;;;;;10.32;8.57;;;;;;;3.32;85.18;98435.59;5035438;28;20040;-34
2021/01/31 01:54:11;;;;;;;10.13;9.10;;;;;;;3.32;85.44;98440.72;5035499;28;20033;-34
2021/01/31 01:56:47;;;;;;;9.90;8.88;;;;;;;3.28;85.52;98433.78;5019373;28;20044;-34
2021/01/31 01:59:21;;;;;;;10.20;8.75;;;;;;;3.31;85.32;98432.19;5053058;28;20037;-34
2021/01/31 02:02:09;;;;;;;10.30;8.93;;;;;;;3.32;85.45;98430.47;5031370;28;20052;-34
2021/01/31 02:04:35;;;;;;;9.40;8.02;;;;;;;3.32;85.11;98430.47;5032942;28;20033;-34
2021/01/31 02:07:06;;;;;;;9.40;8.45;;;;;;;3.30;85.13;98425.31;5033089;28;20489;-34
2021/01/31 02:09:41;;;;;;;10.40;8.70;;;;;;;3.30;85.48;98422.75;5032017;28;20112;-34
2021/01/31 02:12:13;;;;;;;10.50;9.38;;;;;;;3.28;84.95;98421.88;5015159;28;20038;-34
2021/01/31 02:14:48;;;;;;;9.43;8.07;;;;;;;3.30;85.03;98435.56;5033068;28;20026;-34
2021/01/31 02:17:25;;;;;;;13.18;9.80;;;;;;;3.29;85.27;98431.28;5031567;28;20048;-34
2021/01/31 02:19:56;;;;;;;10.45;9.13;;;;;;;3.31;85.40;98429.63;5031683;28;20045;-34
2021/01/31 02:22:55;;;;;;;10.73;8.73;;;;;;;3.28;85.00;98434.66;5031633;28;20502;-34
2021/01/31 02:26:02;;;;;;;11.45;8.90;;;;;;;3.29;85.07;98436.41;5033465;28;20418;-34
2021/01/31 02:28:44;;;;;;;10.63;9.50;;;;;;;3.28;85.32;98427.00;5015399;28;20044;-34
2021/01/31 02:31:37;;;;;;;11.18;9.95;;;;;;;3.29;85.35;98428.72;5047843;28;20041;-34
2021/01/31 02:34:28;;;;;;;10.93;9.80;;;;;;;3.29;85.39;98428.72;5048134;28;20496;-34
2021/01/31 02:37:11;;;;;;;10.65;9.55;;;;;;;3.28;85.68;98434.66;5032639;28;20131;-34
2021/01/31 02:40:02;;;;;;;11.40;9.43;;;;;;;3.26;84.88;98426.09;5032844;28;20038;-34
2021/01/31 02:42:39;;;;;;;10.70;8.93;;;;;;;3.29;85.38;98428.72;5031847;28;20033;-34
2021/01/31 02:45:21;;;;;;;11.60;9.43;;;;;;;3.25;85.62;98423.50;5034838;28;20087;-34
2021/01/31 02:48:01;;;;;;;10.98;9.57;;;;;;;3.23;85.37;98427.75;5034986;28;20064;-34
2021/01/31 02:50:56;;;;;;;10.35;8.63;;;;;;;3.24;85.04;98427.75;5036172;28;20038;-34
2021/01/31 02:53:40;;;;;;;12.40;10.10;;;;;;;3.26;84.86;98425.25;5036357;28;20072;-34
2021/01/31 02:56:26;;;;;;;12.30;9.23;;;;;;;3.24;85.40;98426.91;5035057;28;20037;-34
2021/01/31 02:59:10;;;;;;;12.65;9.65;;;;;;;3.23;84.73;98420.91;5035232;28;20037;-34
2021/01/31 03:01:54;;;;;;;10.35;9.23;;;;;;;3.23;85.21;98425.19;5034829;28;20107;-34
2021/01/31 03:04:29;;;;;;;10.85;9.70;;;;;;;3.20;85.05;98423.41;5035032;28;20044;-34
2021/01/31 03:07:11;;;;;;;11.00;9.68;;;;;;;3.22;85.51;98431.13;5035747;28;20037;-34
2021/01/31 03:09:50;;;;;;;10.52;9.40;;;;;;;3.17;85.15;98431.91;5036150;28;20045;-34
2021/01/31 03:12:34;;;;;;;10.77;9.68;;;;;;;3.16;85.34;98416.50;5034469;28;20052;-34
2021/01/31 03:15:21;;;;;;;12.85;10.15;;;;;;;3.15;85.23;98414.78;5018698;28;20392;-34
2021/01/31 03:18:07;;;;;;;10.55;9.35;;;;;;;3.14;85.42;98420.75;5018567;28;20068;-34
2021/01/31 03:20:59;;;;;;;12.07;10.55;;;;;;;3.14;85.27;98421.59;5034254;28;20041;-34
2021/01/31 03:23:36;;;;;;;11.07;9.48;;;;;;;3.15;85.21;98425.03;5050960;28;20090;-34
2021/01/31 03:26:22;;;;;;;10.35;9.25;;;;;;;3.15;84.90;98433.56;5035859;28;20025;-34
2021/01/31 03:28:56;;;;;;;10.35;9.02;;;;;;;3.12;85.36;98428.38;5035682;28;20069;-34
2021/01/31 03:31:29;;;;;;;13.82;10.00;;;;;;;3.09;85.14;98430.91;5035619;28;20044;-34
2021/01/31 03:34:05;;;;;;;11.65;10.25;;;;;;;3.12;85.42;98436.06;5033824;28;20042;-34
2021/01/31 03:36:42;;;;;;;10.40;9.07;;;;;;;3.12;85.13;98433.50;5034601;28;20065;-34
2021/01/31 03:39:16;;;;;;;11.00;9.50;;;;;;;3.11;85.24;98439.47;5034423;28;20037;-34
2021/01/31 03:41:47;;;;;;;12.75;10.80;;;;;;;3.09;84.93;98438.56;5034254;28;20549;-34
2021/01/31 03:44:19;;;;;;;11.02;9.50;;;;;;;3.08;85.28;98439.41;5035229;28;20481;-34
2021/01/31 03:47:03;;;;;;;12.70;11.00;;;;;;;3.11;85.17;98448.84;5017695;28;20040;-34
2021/01/31 03:49:43;;;;;;;;;;;;;;;3.12;85.49;98451.41;5035946;28;20474;-34
2021/01/31 03:52:13;;;;;;;10.50;9.15;;;;;;;3.10;85.57;98445.41;5050597;28;19913;-34
2021/01/31 03:54:47;;;;;;;13.52;9.90;;;;;;;3.10;85.09;98440.31;5035116;28;20506;-34
2021/01/31 03:57:30;;;;;;;11.60;10.25;;;;;;;3.12;85.00;98435.19;5033854;28;20443;-34
2021/01/31 04:00:22;;;;;;;11.93;9.75;;;;;;;3.10;84.83;98437.75;5034867;28;20029;-34
2021/01/31 04:02:55;;;;;;;12.55;11.25;;;;;;;3.11;85.11;98430.91;5025809;28;20102;-34
2021/01/31 04:05:23;;;;;;;10.48;9.38;;;;;;;3.11;85.42;98442.03;5050243;28;20041;-34
2021/01/31 04:07:52;;;;;;;15.82;10.95;;;;;;;3.10;85.08;98452.22;5050171;28;20037;-34
2021/01/31 04:10:21;;;;;;;12.10;9.82;;;;;;;3.09;85.69;98441.13;5034744;28;20030;-34
2021/01/31 04:13:01;;;;;;;13.13;9.32;;;;;;;3.08;85.33;98443.63;5034768;28;20072;-34
2021/01/31 04:15:41;;;;;;;10.68;8.77;;;;;;;3.08;85.23;98435.97;5033524;28;20064;-34
2021/01/31 04:18:13;;;;;;;12.40;10.85;;;;;;;3.09;85.39;98442.81;5050030;28;20552;-34
2021/01/31 04:20:47;;;;;;;12.48;9.75;;;;;;;3.08;85.06;98441.09;5034526;28;20032;-34
2021/01/31 04:23:22;;;;;;;11.60;10.40;;;;;;;3.08;85.18;98443.63;5034402;28;20477;-34
2021/01/31 04:25:51;;;;;;;10.80;9.43;;;;;;;3.07;85.26;98444.47;5049783;28;20049;-34
2021/01/31 04:28:24;;;;;;;13.07;10.88;;;;;;;3.05;85.50;98447.00;5049809;28;20549;-34
2021/01/31 04:30:57;;;;;;;13.65;10.38;;;;;;;3.05;84.88;98439.34;5049589;28;20040;-34
2021/01/31 04:33:30;;;;;;;10.23;8.98;;;;;;;3.03;85.36;98447.00;5033500;28;20033;-34
2021/01/31 04:36:01;;;;;;;13.10;11.55;;;;;;;3.03;85.32;98452.13;5034006;28;20108;-34
2021/01/31 04:38:33;;;;;;;12.10;10.65;;;;;;;3.04;84.81;98447.84;5033062;28;20060;-34
2021/01/31 04:41:04;;;;;;;12.60;10.23;;;;;;;3.02;85.23;98455.50;5032975;28;20511;-34
2021/01/31 04:43:36;;;;;;;13.05;11.50;;;;;;;3.03;85.27;98452.13;5033011;28;20044;-34
2021/01/31 04:46:09;;;;;;;11.25;9.98;;;;;;;3.02;85.40;98452.94;5034443;28;20072;-34
2021/01/31 04:48:59;;;;;;;13.10;10.90;;;;;;;3.03;85.50;98459.78;5032720;28;20429;-34
2021/01/31 04:51:43;;;;;;;11.25;10.00;;;;;;;3.01;85.24;98453.78;5034291;28;20515;-34
2021/01/31 04:54:39;;;;;;;12.83;10.07;;;;;;;3.01;85.56;98451.22;5032780;28;20120;-34
2021/01/31 04:57:27;;;;;;;14.52;11.45;;;;;;;3.02;85.09;98452.94;5033869;28;20643;-34
2021/01/31 04:59:52;;;;;;;15.30;10.77;;;;;;;3.03;85.40;98457.22;5033366;28;20083;-34
2021/01/31 05:02:34;;;;;;;12.02;10.68;;;;;;;3.03;85.68;98461.47;5043238;28;20044;-34
2021/01/31 05:05:12;;;;;;;12.98;10.45;;;;;;;3.01;85.32;98452.91;5053886;28;20032;-34
2021/01/31 05:07:46;;;;;;;12.88;11.23;;;;;;;3.00;84.99;98458.84;5035421;28;20044;-34
2021/01/31 05:10:16;;;;;;;15.57;11.63;;;;;;;2.98;84.93;98453.69;5053614;28;20124;-34
2021/01/31 05:12:57;;;;;;;12.27;10.95;;;;;;;2.99;85.33;98463.13;5053305;28;20037;-34
2021/01/31 05:15:27;;;;;;;13.98;12.00;;;;;;;2.98;85.51;98463.94;5053850;28;20029;-34
2021/01/31 05:17:59;;;;;;;12.55;11.18;;;;;;;2.99;84.81;98464.78;5035752;28;20507;-34
2021/01/31 05:20:33;;;;;;;14.05;11.82;;;;;;;3.00;85.27;98475.09;5052451;28;20131;-34
2021/01/31 05:23:04;;;;;;;13.45;11.13;;;;;;;2.99;85.44;98468.22;5035766;28;20087;-34
2021/01/31 05:25:39;;;;;;;13.52;10.85;;;;;;;2.98;85.19;98476.75;5053489;28;20033;-34
2021/01/31 05:28:10;;;;;;;12.02;10.43;;;;;;;2.96;85.02;98486.06;5053680;28;20033;-34
2021/01/31 05:30:45;;;;;;;14.75;10.68;;;;;;;2.97;85.01;98485.25;5053755;28;20060;-34
2021/01/31 05:33:28;;;;;;;14.38;10.88;;;;;;;2.97;85.10;98474.13;5019199;28;20055;-34
2021/01/31 05:36:18;;;;;;;14.07;12.15;;;;;;;2.97;85.82;98480.13;5053178;28;20470;-34
2021/01/31 05:38:46;;;;;;;14.48;11.80;;;;;;;2.97;85.07;98492.03;5053187;28;20036;-34
2021/01/31 05:41:35;;;;;;;14.00;11.07;;;;;;;2.99;85.24;98490.38;5018651;28;20404;-34
2021/01/31 05:44:14;;;;;;;14.57;10.98;;;;;;;2.97;84.68;98494.59;5035604;28;20037;-34
2021/01/31 05:46:52;;;;;;;16.23;12.07;;;;;;;2.97;85.60;98492.94;5019140;28;20503;-38
2021/01/31 05:49:42;;;;;;;15.90;11.68;;;;;;;2.97;85.69;98495.50;5053147;28;20064;-34
2021/01/31 05:52:32;;;;;;;14.35;11.88;;;;;;;2.96;85.71;98493.75;5052976;28;20047;-34
2021/01/31 05:54:58;;;;;;;15.98;11.68;;;;;;;2.96;84.77;98500.59;5046802;28;20053;-34
2021/01/31 05:57:32;;;;;;;14.73;11.52;;;;;;;2.96;85.29;98498.03;5034955;28;20068;-34
2021/01/31 06:00:29;;;;;;;14.05;11.57;;;;;;;2.96;85.13;98504.00;5034918;28;20071;-34
2021/01/31 06:03:20;;;;;;;13.95;11.75;;;;;;;2.96;85.62;98508.25;5052901;28;20057;-34
2021/01/31 06:05:47;;;;;;;16.30;12.15;;;;;;;2.96;84.79;98503.16;5052967;28;20029;-34
2021/01/31 06:08:29;;;;;;;14.95;11.73;;;;;;;2.96;85.11;98501.44;5035256;28;20036;-34
2021/01/31 06:11:05;;;;;;;13.57;11.23;;;;;;;2.94;84.96;98500.53;5034704;28;20037;-34
2021/01/31 06:13:38;;;;;;;13.05;10.40;;;;;;;2.91;85.39;98508.13;5035449;28;20090;-34
2021/01/31 06:16:18;;;;;;;14.23;11.95;;;;;;;2.92;85.41;98514.13;5035383;28;20068;-34
2021/01/31 06:19:00;;;;;;;15.20;12.43;;;;;;;2.91;85.17;98508.13;5034917;28;20120;-34
2021/01/31 06:21:38;;;;;;;13.13;11.07;;;;;;;2.91;85.08;98510.69;5056601;28;20079;-34
2021/01/31 06:24:33;;;;;;;14.23;12.30;;;;;;;2.91;85.25;98522.66;5056726;28;20076;-34
2021/01/31 06:27:02;;;;;;;14.95;12.73;;;;;;;2.90;85.70;98516.63;5056697;28;20044;-34
2021/01/31 06:29:43;;;;;;;14.43;12.23;;;;;;;2.91;85.31;98510.69;5056396;28;20468;-34
2021/01/31 06:32:18;;;;;;;13.88;10.90;;;;;;;2.89;84.84;98502.13;5038847;28;20033;-34
2021/01/31 06:34:55;;;;;;;15.32;12.02;;;;;;;2.88;85.57;98510.66;5022883;28;20258;-34
2021/01/31 06:37:21;;;;;;;15.57;12.68;;;;;;;2.89;85.43;98512.34;5038798;28;20083;-34
2021/01/31 06:40:14;;;;;;;15.68;12.32;;;;;;;2.89;85.67;98520.03;5055951;28;20032;-34
2021/01/31 06:43:00;;;;;;;15.13;12.20;;;;;;;2.89;85.43;98515.78;5056216;28;20040;-34
2021/01/31 06:46:03;;;;;;;16.00;13.15;;;;;;;2.87;85.06;98519.16;5056392;28;20459;-34
2021/01/31 06:48:31;;;;;;;15.50;12.68;;;;;;;2.85;85.32;98516.53;5055943;28;20120;-34
2021/01/31 06:51:11;;;;;;;14.15;11.75;;;;;;;2.87;85.43;98517.44;5055859;28;20045;-34
2021/01/31 06:54:12;;;;;;;16.55;12.27;;;;;;;2.87;85.25;98525.13;5037906;28;20484;-34
2021/01/31 06:56:55;;;;;;;15.38;12.55;;;;;;;2.87;85.38;98521.72;5055849;28;20055;-34
2021/01/31 06:59:48;;;;;;;15.95;12.90;;;;;;;2.85;85.38;98526.78;5055328;28;20246;-34
2021/01/31 07:02:31;;;;;;;16.63;12.63;;;;;;;2.85;85.23;98531.06;5037895;28;20057;-34
2021/01/31 07:05:45;;;;;;;15.00;12.35;;;;;;;2.84;85.21;98542.97;5055745;28;20037;-34
2021/01/31 07:08:16;;;;;;;16.02;13.25;;;;;;;2.86;85.21;98548.13;5044951;28;20064;-34
2021/01/31 07:11:25;;;;;;;15.88;12.75;;;;;;;2.86;85.36;98550.69;5055862;28;20040;-34
2021/01/31 07:14:15;;;;;;;16.23;12.77;;;;;;;2.87;85.36;98549.88;5056309;28;20064;-34
2021/01/31 07:16:58;;;;;;;14.52;11.88;;;;;;;2.86;85.00;98541.31;5021662;28;20047;-34
2021/01/31 07:19:56;;;;;;;15.90;12.32;;;;;;;2.86;85.77;98543.88;5037067;28;20501;-34
2021/01/31 07:22:58;;;;;;;16.88;12.68;;;;;;;2.85;85.85;98544.69;5037717;28;20503;-34
2021/01/31 07:25:34;;;;;;;15.35;11.90;;;;;;;2.86;85.42;98548.13;5055775;28;20523;-34
2021/01/31 07:28:06;;;;;;;15.85;12.63;;;;;;;2.85;85.57;98539.56;5020911;28;20044;-34
2021/01/31 07:30:36;;;;;;;17.40;14.13;;;;;;;2.85;85.43;98536.16;5053315;28;20093;-34
2021/01/31 07:33:16;;;;;;;15.93;12.38;;;;;;;2.85;85.38;98547.25;5055268;28;20040;-34
2021/01/31 07:36:16;;;;;;;16.10;12.52;;;;;;;2.85;85.51;98547.25;5037290;28;20032;-34
2021/01/31 07:38:57;;;;;;;16.60;13.15;;;;;;;2.84;85.53;98544.66;5017703;28;20075;-34
2021/01/31 07:41:29;;;;;;;17.15;13.20;;;;;;;2.83;85.69;98548.06;5021004;28;20033;-34
2021/01/31 07:44:12;;;;;;;16.05;13.07;;;;;;;2.83;85.25;98548.06;5055475;28;20123;-34
2021/01/31 07:46:43;;;;;;;16.13;12.93;;;;;;;2.83;85.01;98553.19;5054813;28;20179;-34
2021/01/31 07:49:11;;;;;;;16.52;13.15;;;;;;;2.83;84.82;98546.34;5055419;28;20120;-34
2021/01/31 07:51:43;;;;;;;15.57;12.70;;;;;;;2.82;85.90;98538.66;5037093;28;20626;-34
2021/01/31 07:54:30;;;;;;;15.95;12.60;;;;;;;2.81;85.54;98532.66;5053949;28;20120;-34
2021/01/31 07:57:22;;;;;;;16.17;12.73;;;;;;;2.82;84.87;98536.09;5036871;28;20044;-34
2021/01/31 07:59:52;;;;;;;15.88;12.80;;;;;;;2.81;85.22;98542.88;5055188;28;20495;-34
2021/01/31 08:02:39;;;;;;;17.40;14.02;;;;;;;2.81;85.13;98545.44;5053231;28;20080;-34
2021/01/31 08:05:11;;;;;;;15.73;11.93;;;;;;;2.82;85.64;98546.31;5053348;28;20033;-34
2021/01/31 08:08:07;;;;;;;16.65;12.35;;;;;;;2.82;85.34;98541.22;5036473;28;20124;-34
2021/01/31 08:10:41;;;;;;;18.75;13.70;;;;;;;2.83;85.25;98535.25;5054971;28;20442;-34
2021/01/31 08:13:14;;;;;;;14.35;12.18;;;;;;;2.84;85.35;98534.44;5054486;28;20043;-34
2021/01/31 08:15:45;;;;;;;15.98;12.77;;;;;;;2.82;85.53;98544.63;5036841;28;20116;-34
2021/01/31 08:18:20;;;;;;;14.43;12.20;;;;;;;2.83;84.93;98542.94;5035820;28;20037;-35
2021/01/31 08:20:54;;;;;;;;;;;;;;;2.82;85.16;98541.22;5037276;28;20124;-36
2021/01/31 08:23:34;;;;;;;17.58;13.73;;;;;;;2.82;85.15;98547.19;5054307;28;19916;-38
2021/01/31 08:26:05;;;;;;;14.57;12.40;;;;;;;2.82;85.60;98531.81;5019960;28;20048;-34
2021/01/31 08:28:48;;;;;;;15.95;12.20;;;;;;;2.81;85.67;98534.34;5036830;28;20037;-35
2021/01/31 08:31:22;;;;;;;17.67;13.25;;;;;;;2.79;85.47;98536.91;5054611;28;20033;-34
2021/01/31 08:34:13;;;;;;;14.60;12.73;;;;;;;2.80;85.71;98541.19;5054229;28;20032;-34
2021/01/31 08:36:39;;;;;;;17.00;12.90;;;;;;;2.81;85.73;98544.59;5051603;28;20500;-34
2021/01/31 08:39:29;;;;;;;16.70;13.27;;;;;;;2.82;85.80;98544.63;5036182;28;20048;-34
2021/01/31 08:42:14;;;;;;;15.73;12.05;;;;;;;2.81;85.59;98539.47;5053141;28;20102;-34
2021/01/31 08:44:54;;;;;;;14.45;11.77;;;;;;;2.81;85.50;98554.84;5053603;28;20084;-34
2021/01/31 08:47:22;;;;;;;16.02;12.18;;;;;;;2.82;85.70;98547.19;5035767;28;20595;-34
2021/01/31 08:50:01;;;;;;;15.05;11.98;;;;;;;2.82;85.86;98557.41;5019783;28;20091;-34
2021/01/31 08:52:29;;;;;;;15.48;11.85;;;;;;;2.82;85.37;98567.66;5035753;28;20086;-34
2021/01/31 08:55:04;;;;;;;16.13;12.82;;;;;;;2.82;85.78;98559.13;5036162;28;20072;-34
2021/01/31 08:57:37;;;;;;;15.85;12.18;;;;;;;2.82;85.46;98551.44;5053534;28;20404;-34
2021/01/31 09:00:08;;;;;;;14.65;11.85;;;;;;;2.82;84.99;98544.63;5036072;28;20089;-34
2021/01/31 09:02:44;;;;;;;17.88;12.35;;;;;;;2.81;85.12;98552.28;5053472;28;20095;-34
2021/01/31 09:05:15;;;;;;;14.45;10.35;;;;;;;2.82;85.17;98559.13;5035584;28;20037;-34
2021/01/31 09:07:50;;;;;;;14.88;11.60;;;;;;;2.82;85.58;98554.84;5036038;28;20036;-34
2021/01/31 09:10:36;;;;;;;15.50;11.88;;;;;;;2.81;85.27;98558.25;5035539;28;20033;-34
2021/01/31 09:13:13;;;;;;;16.25;12.57;;;;;;;2.83;85.47;98558.28;5035583;28;20116;-34
2021/01/31 09:15:44;;;;;;;13.95;11.75;;;;;;;2.81;85.64;98565.06;5053814;28;20120;-34
2021/01/31 09:18:23;;;;;;;15.25;12.32;;;;;;;2.82;86.01;98561.69;5019221;28;20087;-34
2021/01/31 09:21:19;;;;;;;14.43;11.18;;;;;;;2.81;85.47;98558.25;5051924;28;20064;-34
2021/01/31 09:23:46;;;;;;;15.65;12.50;;;;;;;2.83;85.42;98555.72;5052645;28;20048;-34
2021/01/31 09:26:11;;;;;;;14.35;12.02;;;;;;;2.82;85.78;98556.56;5053742;28;20043;-34
2021/01/31 09:28:41;;;;;;;15.02;12.25;;;;;;;2.83;85.18;98555.72;5035392;28;20124;-34
2021/01/31 09:31:15;;;;;;;15.25;11.40;;;;;;;2.82;85.92;98554.84;5035524;28;20041;-34
2021/01/31 09:33:53;;;;;;;16.70;12.90;;;;;;;2.81;85.46;98550.56;5019027;28;20052;-34
2021/01/31 09:36:20;;;;;;;15.57;12.07;;;;;;;2.80;85.57;98548.88;5053817;28;20040;-34
2021/01/31 09:38:59;;;;;;;13.80;10.95;;;;;;;2.80;85.57;98545.41;5053153;28;20032;-34
2021/01/31 09:41:28;;;;;;;14.50;11.52;;;;;;;2.81;85.26;98534.34;5052825;28;20033;-34
2021/01/31 09:44:04;;;;;;;14.70;12.02;;;;;;;2.82;85.68;98528.41;5035441;28;20044;-34
2021/01/31 09:46:36;;;;;;;13.68;11.13;;;;;;;2.82;85.37;98525.84;5053188;28;20076;-34
2021/01/31 09:49:17;;;;;;;15.15;11.38;;;;;;;2.80;85.49;98523.28;5053028;28;20041;-34
2021/01/31 09:51:51;;;;;;;12.55;10.55;;;;;;;2.79;85.12;98518.09;5053361;28;20124;-34
2021/01/31 09:54:26;;;;;;;;;;;;;;;2.79;85.19;98515.53;5038280;28;20525;-34
2021/01/31 09:57:05;;;;;;;15.13;11.95;;;;;;;2.79;85.41;98520.66;5057284;28;20457;-34
2021/01/31 09:59:35;;;;;;;13.48;11.25;;;;;;;2.80;85.69;98519.84;5039070;28;20037;-34
2021/01/31 10:02:22;;;;;;;13.50;10.82;;;;;;;2.78;85.36;98509.56;5057060;28;20052;-34
2021/01/31 10:05:01;;;;;;;14.25;11.65;;;;;;;2.79;85.76;98507.88;5039300;28;20037;-34
2021/01/31 10:07:42;;;;;;;14.70;11.57;;;;;;;2.77;85.30;98515.53;5057432;28;20032;-34
2021/01/31 10:10:22;;;;;;;15.27;11.45;;;;;;;2.76;85.22;98513.78;5056777;28;20116;-34
2021/01/31 10:13:28;;;;;;;14.50;11.18;;;;;;;2.76;85.40;98512.91;5056771;28;20041;-34
2021/01/31 10:16:00;;;;;;;13.23;11.02;;;;;;;2.77;85.34;98509.53;5057351;28;20036;-34
2021/01/31 10:18:38;;;;;;;13.15;10.02;;;;;;;2.76;85.60;98505.22;5022370;28;20036;-34
2021/01/31 10:21:36;;;;;;;17.27;12.38;;;;;;;2.76;85.25;98505.22;5056392;28;20036;-34
2021/01/31 10:24:24;;;;;;;16.17;11.77;;;;;;;2.77;85.86;98507.84;5038871;28;20059;-34
2021/01/31 10:27:03;;;;;;;12.93;10.95;;;;;;;2.77;85.27;98506.97;5056471;28;20033;-34
2021/01/31 10:29:30;;;;;;;14.35;10.55;;;;;;;2.76;85.65;98511.22;5038962;28;20049;-34
2021/01/31 10:32:26;;;;;;;14.68;10.73;;;;;;;2.77;85.73;98506.97;5038801;28;20036;-34
2021/01/31 10:34:56;;;;;;;12.65;10.50;;;;;;;2.76;85.37;98495.88;5056237;28;20511;-41
2021/01/31 10:37:37;;;;;;;12.88;10.63;;;;;;;2.76;85.46;98498.44;5056368;28;20060;-35
2021/01/31 10:40:09;;;;;;;13.80;10.98;;;;;;;2.75;85.58;98496.72;5038302;28;20048;-34
2021/01/31 10:42:41;;;;;;;14.85;10.93;;;;;;;2.78;85.55;98503.56;5038285;28;20087;-34
2021/01/31 10:45:14;;;;;;;13.38;11.20;;;;;;;2.76;85.45;98489.88;5055723;28;20083;-34
2021/01/31 10:47:51;;;;;;;14.05;11.32;;;;;;;2.76;86.07;98492.44;5038274;28;20052;-34
2021/01/31 10:50:26;;;;;;;16.63;11.60;;;;;;;2.76;85.72;98488.22;5055837;28;20040;-34
2021/01/31 10:52:56;;;;;;;13.90;10.88;;;;;;;2.78;85.35;98478.88;5056204;28;20496;-34
2021/01/31 10:55:28;;;;;;;14.82;10.50;;;;;;;2.77;85.48;98471.16;5038342;28;20041;-34
2021/01/31 10:58:01;;;;;;;13.85;11.05;;;;;;;2.76;85.89;98464.28;5056166;28;20033;-34
2021/01/31 11:00:37;;;;;;;13.07;10.20;;;;;;;2.76;85.30;98462.63;5038128;28;20101;-34
2021/01/31 11:03:06;;;;;;;13.77;10.55;;;;;;;2.76;85.65;98464.28;5055666;28;20041;-34
2021/01/31 11:05:37;;;;;;;13.88;10.25;;;;;;;2.74;85.54;98449.78;5054786;28;20382;-34
2021/01/31 11:08:08;;;;;;;14.10;11.30;;;;;;;2.76;84.84;98454.94;5055857;28;20064;-34
2021/01/31 11:10:44;;;;;;;14.45;11.73;;;;;;;2.76;85.25;98454.06;5038386;28;20182;-34
2021/01/31 11:13:13;;;;;;;15.85;11.93;;;;;;;2.75;85.14;98458.34;5038093;28;20045;-34
2021/01/31 11:15:44;;;;;;;13.13;9.98;;;;;;;2.75;85.31;98468.56;5038034;28;20087;-34
2021/01/31 11:18:15;;;;;;;16.38;11.95;;;;;;;2.76;85.28;98464.28;5020911;28;20127;-34
2021/01/31 11:20:44;;;;;;;12.05;10.05;;;;;;;2.77;85.75;98463.47;5055459;28;20503;-34
2021/01/31 11:23:18;;;;;;;15.95;11.65;;;;;;;2.74;85.58;98454.88;5055515;28;20404;-34
2021/01/31 11:25:47;;;;;;;14.65;10.82;;;;;;;2.73;85.68;98448.03;5054585;28;20087;-34
2021/01/31 11:28:17;;;;;;;17.50;12.48;;;;;;;2.72;85.21;98451.47;5037682;28;20055;-34
2021/01/31 11:30:49;;;;;;;15.38;10.10;;;;;;;2.74;85.07;98456.59;5037134;28;20523;-34
2021/01/31 11:33:20;;;;;;;15.75;11.00;;;;;;;2.76;85.53;98451.50;5037743;28;20401;-34
2021/01/31 11:35:52;;;;;;;15.20;11.00;;;;;;;2.76;85.16;98451.50;5037763;28;20037;-34
2021/01/31 11:38:23;;;;;;;14.82;11.38;;;;;;;2.73;85.37;98450.59;5021033;28;20064;-34
2021/01/31 11:40:55;;;;;;;;;;;;;;;2.73;85.92;98435.25;5037449;28;20029;-34
2021/01/31 11:43:26;;;;;;;15.10;10.52;;;;;;;2.72;85.08;98435.22;5056006;28;20011;-34
2021/01/31 11:45:57;;;;;;;14.10;10.82;;;;;;;2.67;85.10;98440.25;5037660;28;20041;-34
2021/01/31 11:48:29;;;;;;;14.85;11.10;;;;;;;2.65;85.26;98435.94;5037668;28;20037;-34
2021/01/31 11:50:55;;;;;;;14.85;11.65;;;;;;;2.68;85.23;98438.53;5020549;28;20048;-34
2021/01/31 11:53:28;;;;;;;13.07;10.65;;;;;;;2.67;85.32;98437.69;5037037;28;20120;-34
2021/01/31 11:56:04;;;;;;;14.07;10.50;;;;;;;2.69;85.36;98423.25;5037558;28;20041;-34
2021/01/31 11:58:35;;;;;;;14.07;11.35;;;;;;;2.68;85.12;98423.19;5037257;28;20090;-34
2021/01/31 12:01:10;;;;;;;16.80;12.00;;;;;;;2.68;85.27;98415.53;5036860;28;20472;-34
2021/01/31 12:03:42;;;;;;;15.07;10.45;;;;;;;2.69;84.81;98415.56;5036797;28;20048;-34
2021/01/31 12:06:13;;;;;;;15.95;10.82;;;;;;;2.66;85.14;98414.63;5054611;28;20040;-34
2021/01/31 12:08:44;;;;;;;15.68;11.50;;;;;;;2.67;84.86;98411.22;5037610;28;20028;-34
2021/01/31 12:11:16;;;;;;;15.85;12.00;;;;;;;2.69;85.01;98404.47;5054329;28;20591;-34
2021/01/31 12:13:44;;;;;;;14.07;11.30;;;;;;;2.70;85.24;98396.84;5036283;28;20067;-34
2021/01/31 12:16:18;;;;;;;15.35;11.40;;;;;;;2.71;85.13;98403.69;5020831;28;20077;-34